الصفحة الرئيسية
METAR-TAF:

METAR-TAF

مطار :

مطار مورتالا محمد الدولي

لاغوس, نيجيريا

دائرة عرض: 06-35N, خط طول: 003-20E, ارتفاع: 40 متر

مراقبة الطقس الحالي

تاريخ ووقت الإصدار 1ساعة و 21 دقيقة قبل الساعة 02:00UTC
ريح 3 عقدة من الشمال
درجة الحرارة 24°درجة مئوية
الرطوبة 94%
ضغط 1013 hPa
الرؤية: 7000 متر
غيوم قليلة على ارتفاع 800 قدم

METAR: DNMM 230200Z 36003KT 7000 FEW008 24/23 Q1013 NOSIG

زمن: 04:21 (03:21 UTC)

توقعات

تاريخ ووقت الإصدار 5ساعات و 31 دقيقة قبل الساعة 21:50UTC
التوقعات صالحة من23 الساعة 00 UTC إلى 24 الساعة 06 UTC
ريح 2 عقدةمن اتجاهات متغيرة
الرؤية: 8000 متر
غيوم قليلة على ارتفاع 800 قدم
مؤقت
من 23 الساعة 05 UTC إلى 23 الساعة 07 UTC
الرؤية: 5000 متر
غشاء
أصبح
من 23 الساعة 08 UTC إلى 23 الساعة 10 UTC
ريح 10 عقدة من الجنوب
غيوم مفككة على ارتفاع 1300 قدم
غيوم قليلة على ارتفاع 2000 قدم, مزنة ركامية.

TAF: DNMM 222150Z 2300/2406 VRB02KT 8000 FEW008 TEMPO 2305/2307 5000 BR BECMG 2308/2310 18010KT BKN013 FEW020CB

أرصاد الطقس والتوقعات من أكثر من 4000 مطار (تقارير الطقس للمطار METAR والتنبؤ بالطقس بالمطارTAF).

المحطات المتاحة هي النقط الصفراء والحمراء على الخريطة.

حرك المؤشر فوق النقطة لمعرفة اسم المحطة.

ثم انقر لمعرفة أرصاد وتوقعات الطقس.

لتغيير الخارطة: اضغط على الأزرار الخضراء مع رمز الصليب الأسود للتكبير. على الزر الأخضر مع شرطة للتصغير، أو على الأسهم الخضراء للخرائط المجاورة.


METAR-TAF: